sensor_id;sensor_type;location;lat;lon;timestamp;temperature;humidity
7792;DHT22;3940;49.892;10.886;2022-10-24T00:02:07;14.80;99.90
7792;DHT22;3940;49.892;10.886;2022-10-24T00:04:51;14.80;99.90
7792;DHT22;3940;49.892;10.886;2022-10-24T00:07:35;14.80;99.90
7792;DHT22;3940;49.892;10.886;2022-10-24T00:10:20;14.90;99.90
7792;DHT22;3940;49.892;10.886;2022-10-24T00:13:04;14.90;99.90
7792;DHT22;3940;49.892;10.886;2022-10-24T00:15:48;14.90;99.90
7792;DHT22;3940;49.892;10.886;2022-10-24T00:18:33;14.90;99.90
7792;DHT22;3940;49.892;10.886;2022-10-24T00:21:17;14.80;99.90
7792;DHT22;3940;49.892;10.886;2022-10-24T00:24:01;14.80;99.90
7792;DHT22;3940;49.892;10.886;2022-10-24T00:26:45;14.80;99.90
7792;DHT22;3940;49.892;10.886;2022-10-24T00:29:29;14.70;99.90
7792;DHT22;3940;49.892;10.886;2022-10-24T00:32:13;14.60;99.90
7792;DHT22;3940;49.892;10.886;2022-10-24T00:34:58;14.60;99.90
7792;DHT22;3940;49.892;10.886;2022-10-24T00:37:42;14.60;99.90
7792;DHT22;3940;49.892;10.886;2022-10-24T00:40:26;14.60;99.90
7792;DHT22;3940;49.892;10.886;2022-10-24T00:43:22;14.60;99.90
7792;DHT22;3940;49.892;10.886;2022-10-24T00:46:06;14.70;99.90
7792;DHT22;3940;49.892;10.886;2022-10-24T00:48:52;14.80;99.90
7792;DHT22;3940;49.892;10.886;2022-10-24T00:51:37;14.80;99.90
7792;DHT22;3940;49.892;10.886;2022-10-24T00:54:22;14.80;99.90
7792;DHT22;3940;49.892;10.886;2022-10-24T00:57:27;14.90;99.90
7792;DHT22;3940;49.892;10.886;2022-10-24T01:00:17;14.90;99.90
7792;DHT22;3940;49.892;10.886;2022-10-24T01:03:01;15.00;99.90
7792;DHT22;3940;49.892;10.886;2022-10-24T01:05:58;15.00;99.90
7792;DHT22;3940;49.892;10.886;2022-10-24T01:12:18;15.00;99.90
7792;DHT22;3940;49.892;10.886;2022-10-24T01:18:29;15.00;99.90
7792;DHT22;3940;49.892;10.886;2022-10-24T01:21:35;15.00;99.90
7792;DHT22;3940;49.892;10.886;2022-10-24T01:24:36;15.00;99.90
7792;DHT22;3940;49.892;10.886;2022-10-24T01:27:38;15.00;99.90
7792;DHT22;3940;49.892;10.886;2022-10-24T01:30:24;15.00;99.90
7792;DHT22;3940;49.892;10.886;2022-10-24T01:33:16;15.00;99.90
7792;DHT22;3940;49.892;10.886;2022-10-24T01:36:07;15.00;99.90
7792;DHT22;3940;49.892;10.886;2022-10-24T01:38:56;15.00;99.90
7792;DHT22;3940;49.892;10.886;2022-10-24T01:41:42;15.00;99.90
7792;DHT22;3940;49.892;10.886;2022-10-24T01:44:31;15.00;99.90
7792;DHT22;3940;49.892;10.886;2022-10-24T01:47:22;15.00;99.90
7792;DHT22;3940;49.892;10.886;2022-10-24T01:50:11;15.00;99.90
7792;DHT22;3940;49.892;10.886;2022-10-24T01:52:56;15.00;99.90
7792;DHT22;3940;49.892;10.886;2022-10-24T01:55:43;15.00;99.90
7792;DHT22;3940;49.892;10.886;2022-10-24T01:58:28;15.00;99.90
7792;DHT22;3940;49.892;10.886;2022-10-24T02:01:16;15.00;99.90
7792;DHT22;3940;49.892;10.886;2022-10-24T02:04:05;15.00;99.90
7792;DHT22;3940;49.892;10.886;2022-10-24T02:06:51;15.10;99.90
7792;DHT22;3940;49.892;10.886;2022-10-24T02:09:39;15.10;99.90
7792;DHT22;3940;49.892;10.886;2022-10-24T02:12:26;15.10;99.90
7792;DHT22;3940;49.892;10.886;2022-10-24T02:15:18;15.10;99.90
7792;DHT22;3940;49.892;10.886;2022-10-24T02:18:04;15.20;99.90
7792;DHT22;3940;49.892;10.886;2022-10-24T02:21:07;15.20;99.90
7792;DHT22;3940;49.892;10.886;2022-10-24T02:24:02;15.20;99.90
7792;DHT22;3940;49.892;10.886;2022-10-24T02:26:56;15.20;99.90
7792;DHT22;3940;49.892;10.886;2022-10-24T02:29:46;15.20;99.90
7792;DHT22;3940;49.892;10.886;2022-10-24T02:32:50;15.20;99.90
7792;DHT22;3940;49.892;10.886;2022-10-24T02:35:38;15.20;99.90
7792;DHT22;3940;49.892;10.886;2022-10-24T02:38:29;15.10;99.90
7792;DHT22;3940;49.892;10.886;2022-10-24T02:41:19;15.10;99.90
7792;DHT22;3940;49.892;10.886;2022-10-24T02:44:06;15.10;99.90
7792;DHT22;3940;49.892;10.886;2022-10-24T02:46:53;15.10;99.90
7792;DHT22;3940;49.892;10.886;2022-10-24T02:49:40;15.10;99.90
7792;DHT22;3940;49.892;10.886;2022-10-24T02:52:26;15.10;99.90
7792;DHT22;3940;49.892;10.886;2022-10-24T02:55:10;15.00;99.90
7792;DHT22;3940;49.892;10.886;2022-10-24T02:57:54;15.00;99.90
7792;DHT22;3940;49.892;10.886;2022-10-24T03:00:38;15.00;99.90
7792;DHT22;3940;49.892;10.886;2022-10-24T03:03:23;15.00;99.90
7792;DHT22;3940;49.892;10.886;2022-10-24T03:06:07;15.00;99.90
7792;DHT22;3940;49.892;10.886;2022-10-24T03:08:51;15.00;99.90
7792;DHT22;3940;49.892;10.886;2022-10-24T03:11:35;14.90;99.90
7792;DHT22;3940;49.892;10.886;2022-10-24T03:14:20;15.00;99.90
7792;DHT22;3940;49.892;10.886;2022-10-24T03:17:04;15.00;99.90
7792;DHT22;3940;49.892;10.886;2022-10-24T03:19:48;15.00;99.90
7792;DHT22;3940;49.892;10.886;2022-10-24T03:22:32;15.10;99.90
7792;DHT22;3940;49.892;10.886;2022-10-24T03:25:16;15.10;99.90
7792;DHT22;3940;49.892;10.886;2022-10-24T03:28:01;15.10;99.90
7792;DHT22;3940;49.892;10.886;2022-10-24T03:30:44;15.10;99.90
7792;DHT22;3940;49.892;10.886;2022-10-24T03:33:29;15.00;99.90
7792;DHT22;3940;49.892;10.886;2022-10-24T03:36:13;15.00;99.90
7792;DHT22;3940;49.892;10.886;2022-10-24T03:38:57;15.00;99.90
7792;DHT22;3940;49.892;10.886;2022-10-24T03:41:41;15.00;99.90
7792;DHT22;3940;49.892;10.886;2022-10-24T03:44:25;15.00;99.90
7792;DHT22;3940;49.892;10.886;2022-10-24T03:47:10;15.00;99.90
7792;DHT22;3940;49.892;10.886;2022-10-24T03:49:54;15.00;99.90
7792;DHT22;3940;49.892;10.886;2022-10-24T03:52:38;15.00;99.90
7792;DHT22;3940;49.892;10.886;2022-10-24T03:55:23;15.00;99.90
7792;DHT22;3940;49.892;10.886;2022-10-24T03:58:07;15.00;99.90
7792;DHT22;3940;49.892;10.886;2022-10-24T04:00:52;14.90;99.90
7792;DHT22;3940;49.892;10.886;2022-10-24T04:03:36;14.90;99.90
7792;DHT22;3940;49.892;10.886;2022-10-24T04:06:20;14.90;99.90
7792;DHT22;3940;49.892;10.886;2022-10-24T04:09:05;14.90;99.90
7792;DHT22;3940;49.892;10.886;2022-10-24T04:11:49;14.90;99.90
7792;DHT22;3940;49.892;10.886;2022-10-24T04:14:36;14.90;99.90
7792;DHT22;3940;49.892;10.886;2022-10-24T04:17:20;14.90;99.90
7792;DHT22;3940;49.892;10.886;2022-10-24T04:20:05;14.90;99.90
7792;DHT22;3940;49.892;10.886;2022-10-24T04:22:49;14.90;99.90
7792;DHT22;3940;49.892;10.886;2022-10-24T04:25:33;14.90;99.90
7792;DHT22;3940;49.892;10.886;2022-10-24T04:28:17;14.90;99.90
7792;DHT22;3940;49.892;10.886;2022-10-24T04:31:02;14.90;99.90
7792;DHT22;3940;49.892;10.886;2022-10-24T04:33:46;14.90;99.90
7792;DHT22;3940;49.892;10.886;2022-10-24T04:36:31;14.90;99.90
7792;DHT22;3940;49.892;10.886;2022-10-24T04:39:16;15.00;99.90
7792;DHT22;3940;49.892;10.886;2022-10-24T04:42:00;14.90;99.90
7792;DHT22;3940;49.892;10.886;2022-10-24T04:44:44;14.90;99.90
7792;DHT22;3940;49.892;10.886;2022-10-24T04:47:28;14.90;99.90
7792;DHT22;3940;49.892;10.886;2022-10-24T04:50:12;14.90;99.90
7792;DHT22;3940;49.892;10.886;2022-10-24T04:52:56;14.90;99.90
7792;DHT22;3940;49.892;10.886;2022-10-24T04:55:41;14.90;99.90
7792;DHT22;3940;49.892;10.886;2022-10-24T04:58:25;14.80;99.90
7792;DHT22;3940;49.892;10.886;2022-10-24T05:01:10;14.90;99.90
7792;DHT22;3940;49.892;10.886;2022-10-24T05:03:54;14.80;99.90
7792;DHT22;3940;49.892;10.886;2022-10-24T05:06:39;14.90;99.90
7792;DHT22;3940;49.892;10.886;2022-10-24T05:09:23;14.80;99.90
7792;DHT22;3940;49.892;10.886;2022-10-24T05:12:08;14.90;99.90
7792;DHT22;3940;49.892;10.886;2022-10-24T05:14:52;14.80;99.90
7792;DHT22;3940;49.892;10.886;2022-10-24T05:17:37;14.80;99.90
7792;DHT22;3940;49.892;10.886;2022-10-24T05:20:21;14.80;99.90
7792;DHT22;3940;49.892;10.886;2022-10-24T05:23:05;14.80;99.90
7792;DHT22;3940;49.892;10.886;2022-10-24T05:25:49;14.70;99.90
7792;DHT22;3940;49.892;10.886;2022-10-24T05:28:34;14.70;99.90
7792;DHT22;3940;49.892;10.886;2022-10-24T05:31:18;14.70;99.90
7792;DHT22;3940;49.892;10.886;2022-10-24T05:34:02;14.70;99.90
7792;DHT22;3940;49.892;10.886;2022-10-24T05:36:47;14.70;99.90
7792;DHT22;3940;49.892;10.886;2022-10-24T05:39:31;14.70;99.90
7792;DHT22;3940;49.892;10.886;2022-10-24T05:42:16;14.70;99.90
7792;DHT22;3940;49.892;10.886;2022-10-24T05:45:00;14.70;99.90
7792;DHT22;3940;49.892;10.886;2022-10-24T05:47:44;14.70;99.90
7792;DHT22;3940;49.892;10.886;2022-10-24T05:50:28;14.60;99.90
7792;DHT22;3940;49.892;10.886;2022-10-24T05:53:14;14.70;99.90
7792;DHT22;3940;49.892;10.886;2022-10-24T05:55:58;14.70;99.90
7792;DHT22;3940;49.892;10.886;2022-10-24T05:58:42;14.70;99.90
7792;DHT22;3940;49.892;10.886;2022-10-24T06:01:26;14.60;99.90
7792;DHT22;3940;49.892;10.886;2022-10-24T06:04:11;14.70;99.90
7792;DHT22;3940;49.892;10.886;2022-10-24T06:06:55;14.70;99.90
7792;DHT22;3940;49.892;10.886;2022-10-24T06:09:40;14.70;99.90
7792;DHT22;3940;49.892;10.886;2022-10-24T06:12:24;14.70;99.90
7792;DHT22;3940;49.892;10.886;2022-10-24T06:15:10;14.70;99.90
7792;DHT22;3940;49.892;10.886;2022-10-24T06:17:55;14.70;99.90
7792;DHT22;3940;49.892;10.886;2022-10-24T06:20:40;14.70;99.90
7792;DHT22;3940;49.892;10.886;2022-10-24T06:23:24;14.80;99.90
7792;DHT22;3940;49.892;10.886;2022-10-24T06:26:09;14.80;99.90
7792;DHT22;3940;49.892;10.886;2022-10-24T06:28:54;14.90;99.90
7792;DHT22;3940;49.892;10.886;2022-10-24T06:31:38;14.90;99.90
7792;DHT22;3940;49.892;10.886;2022-10-24T06:34:23;14.90;99.90
7792;DHT22;3940;49.892;10.886;2022-10-24T06:37:08;14.90;99.90
7792;DHT22;3940;49.892;10.886;2022-10-24T06:39:52;14.90;99.90
7792;DHT22;3940;49.892;10.886;2022-10-24T06:42:36;14.90;99.90
7792;DHT22;3940;49.892;10.886;2022-10-24T06:45:20;14.90;99.90
7792;DHT22;3940;49.892;10.886;2022-10-24T06:48:06;15.00;99.90
7792;DHT22;3940;49.892;10.886;2022-10-24T06:50:50;15.00;99.90
7792;DHT22;3940;49.892;10.886;2022-10-24T06:53:35;15.10;99.90
7792;DHT22;3940;49.892;10.886;2022-10-24T06:56:20;15.10;99.90
7792;DHT22;3940;49.892;10.886;2022-10-24T06:59:09;15.00;99.90
7792;DHT22;3940;49.892;10.886;2022-10-24T07:01:53;14.80;99.90
7792;DHT22;3940;49.892;10.886;2022-10-24T07:04:38;14.70;99.90
7792;DHT22;3940;49.892;10.886;2022-10-24T07:07:23;14.70;99.90
7792;DHT22;3940;49.892;10.886;2022-10-24T07:10:11;14.70;99.90
7792;DHT22;3940;49.892;10.886;2022-10-24T07:12:58;14.60;99.90
7792;DHT22;3940;49.892;10.886;2022-10-24T07:15:42;14.60;99.90
7792;DHT22;3940;49.892;10.886;2022-10-24T07:18:26;14.60;99.90
7792;DHT22;3940;49.892;10.886;2022-10-24T07:21:18;14.60;99.90
7792;DHT22;3940;49.892;10.886;2022-10-24T07:24:03;14.60;99.90
7792;DHT22;3940;49.892;10.886;2022-10-24T07:26:48;14.70;99.90
7792;DHT22;3940;49.892;10.886;2022-10-24T07:29:32;14.70;99.90
7792;DHT22;3940;49.892;10.886;2022-10-24T07:32:18;14.70;99.90
7792;DHT22;3940;49.892;10.886;2022-10-24T07:35:02;14.70;99.90
7792;DHT22;3940;49.892;10.886;2022-10-24T07:37:47;14.80;99.90
7792;DHT22;3940;49.892;10.886;2022-10-24T07:40:31;14.80;99.90
7792;DHT22;3940;49.892;10.886;2022-10-24T07:43:16;14.70;99.90
7792;DHT22;3940;49.892;10.886;2022-10-24T07:46:05;14.80;99.90
7792;DHT22;3940;49.892;10.886;2022-10-24T07:48:50;14.70;99.90
7792;DHT22;3940;49.892;10.886;2022-10-24T07:51:34;14.70;99.90
7792;DHT22;3940;49.892;10.886;2022-10-24T07:54:18;14.70;99.90
7792;DHT22;3940;49.892;10.886;2022-10-24T07:57:03;14.60;99.90
7792;DHT22;3940;49.892;10.886;2022-10-24T07:59:48;14.60;99.90
7792;DHT22;3940;49.892;10.886;2022-10-24T08:02:32;14.60;99.90
7792;DHT22;3940;49.892;10.886;2022-10-24T08:05:16;14.60;99.90
7792;DHT22;3940;49.892;10.886;2022-10-24T08:08:00;14.50;99.90
7792;DHT22;3940;49.892;10.886;2022-10-24T08:10:45;14.50;99.90
7792;DHT22;3940;49.892;10.886;2022-10-24T08:13:29;14.50;99.90
7792;DHT22;3940;49.892;10.886;2022-10-24T08:16:15;14.50;99.90
7792;DHT22;3940;49.892;10.886;2022-10-24T08:18:59;14.50;99.90
7792;DHT22;3940;49.892;10.886;2022-10-24T08:21:44;14.50;99.90
7792;DHT22;3940;49.892;10.886;2022-10-24T08:24:28;14.50;99.90
7792;DHT22;3940;49.892;10.886;2022-10-24T08:27:12;14.50;99.90
7792;DHT22;3940;49.892;10.886;2022-10-24T08:29:56;14.50;99.90
7792;DHT22;3940;49.892;10.886;2022-10-24T08:32:41;14.60;99.90
7792;DHT22;3940;49.892;10.886;2022-10-24T08:35:25;14.60;99.90
7792;DHT22;3940;49.892;10.886;2022-10-24T08:38:09;14.60;99.90
7792;DHT22;3940;49.892;10.886;2022-10-24T08:40:53;14.50;99.90
7792;DHT22;3940;49.892;10.886;2022-10-24T08:43:38;14.50;99.90
7792;DHT22;3940;49.892;10.886;2022-10-24T08:46:48;14.50;99.90
7792;DHT22;3940;49.892;10.886;2022-10-24T08:50:05;14.50;99.90
7792;DHT22;3940;49.892;10.886;2022-10-24T08:53:09;14.40;99.90
7792;DHT22;3940;49.892;10.886;2022-10-24T08:55:58;14.50;99.90
7792;DHT22;3940;49.892;10.886;2022-10-24T08:58:44;14.50;99.90
7792;DHT22;3940;49.892;10.886;2022-10-24T09:01:37;14.60;99.90
7792;DHT22;3940;49.892;10.886;2022-10-24T09:04:28;14.60;99.90
7792;DHT22;3940;49.892;10.886;2022-10-24T09:07:18;14.70;99.90
7792;DHT22;3940;49.892;10.886;2022-10-24T09:10:14;14.70;99.90
7792;DHT22;3940;49.892;10.886;2022-10-24T09:13:00;14.70;99.90
7792;DHT22;3940;49.892;10.886;2022-10-24T09:15:45;14.70;99.90
7792;DHT22;3940;49.892;10.886;2022-10-24T09:18:35;14.60;99.90
7792;DHT22;3940;49.892;10.886;2022-10-24T09:21:21;14.60;99.90
7792;DHT22;3940;49.892;10.886;2022-10-24T09:24:33;14.60;99.90
7792;DHT22;3940;49.892;10.886;2022-10-24T09:27:23;14.60;99.90
7792;DHT22;3940;49.892;10.886;2022-10-24T09:30:19;14.60;99.90
7792;DHT22;3940;49.892;10.886;2022-10-24T09:36:15;14.70;99.90
7792;DHT22;3940;49.892;10.886;2022-10-24T09:39:22;14.80;99.90
7792;DHT22;3940;49.892;10.886;2022-10-24T09:42:15;14.80;99.90
7792;DHT22;3940;49.892;10.886;2022-10-24T09:45:34;14.80;99.90
7792;DHT22;3940;49.892;10.886;2022-10-24T09:48:29;14.90;99.90
7792;DHT22;3940;49.892;10.886;2022-10-24T09:51:24;14.90;99.90
7792;DHT22;3940;49.892;10.886;2022-10-24T09:54:25;14.90;99.90
7792;DHT22;3940;49.892;10.886;2022-10-24T09:57:15;15.00;99.90
7792;DHT22;3940;49.892;10.886;2022-10-24T10:00:00;15.00;99.90
7792;DHT22;3940;49.892;10.886;2022-10-24T10:03:06;15.00;99.90
7792;DHT22;3940;49.892;10.886;2022-10-24T10:06:13;15.00;99.90
7792;DHT22;3940;49.892;10.886;2022-10-24T10:08:58;15.10;99.90
7792;DHT22;3940;49.892;10.886;2022-10-24T10:11:43;15.00;99.90
7792;DHT22;3940;49.892;10.886;2022-10-24T10:14:28;15.10;99.90
7792;DHT22;3940;49.892;10.886;2022-10-24T10:17:20;15.10;99.90
7792;DHT22;3940;49.892;10.886;2022-10-24T10:20:05;15.00;99.90
7792;DHT22;3940;49.892;10.886;2022-10-24T10:22:49;15.10;99.90
7792;DHT22;3940;49.892;10.886;2022-10-24T10:25:34;15.10;99.90
7792;DHT22;3940;49.892;10.886;2022-10-24T10:28:21;15.10;99.90
7792;DHT22;3940;49.892;10.886;2022-10-24T10:31:08;15.10;99.90
7792;DHT22;3940;49.892;10.886;2022-10-24T10:34:10;15.10;99.90
7792;DHT22;3940;49.892;10.886;2022-10-24T10:40:25;15.10;99.90
7792;DHT22;3940;49.892;10.886;2022-10-24T10:47:01;15.10;99.90
7792;DHT22;3940;49.892;10.886;2022-10-24T10:49:45;15.10;99.90
7792;DHT22;3940;49.892;10.886;2022-10-24T10:52:41;15.10;99.90
7792;DHT22;3940;49.892;10.886;2022-10-24T10:55:42;15.10;99.90
7792;DHT22;3940;49.892;10.886;2022-10-24T10:58:48;15.10;99.90
7792;DHT22;3940;49.892;10.886;2022-10-24T11:02:09;15.10;99.90
7792;DHT22;3940;49.892;10.886;2022-10-24T11:05:36;15.10;99.90
7792;DHT22;3940;49.892;10.886;2022-10-24T11:08:49;15.00;99.90
7792;DHT22;3940;49.892;10.886;2022-10-24T11:12:06;15.10;99.90
7792;DHT22;3940;49.892;10.886;2022-10-24T11:15:03;15.20;99.90
7792;DHT22;3940;49.892;10.886;2022-10-24T11:17:59;15.20;99.90
7792;DHT22;3940;49.892;10.886;2022-10-24T11:20:54;15.30;99.90
7792;DHT22;3940;49.892;10.886;2022-10-24T11:24:07;15.30;99.90
7792;DHT22;3940;49.892;10.886;2022-10-24T11:27:09;15.30;99.90
7792;DHT22;3940;49.892;10.886;2022-10-24T11:30:04;15.40;99.90
7792;DHT22;3940;49.892;10.886;2022-10-24T11:32:57;15.50;99.90
7792;DHT22;3940;49.892;10.886;2022-10-24T11:38:54;15.60;99.90
7792;DHT22;3940;49.892;10.886;2022-10-24T11:41:49;15.60;99.90
7792;DHT22;3940;49.892;10.886;2022-10-24T11:50:59;15.90;99.90
7792;DHT22;3940;49.892;10.886;2022-10-24T11:53:53;16.10;99.90
7792;DHT22;3940;49.892;10.886;2022-10-24T11:56:50;16.20;99.90
7792;DHT22;3940;49.892;10.886;2022-10-24T11:59:39;16.20;99.90
7792;DHT22;3940;49.892;10.886;2022-10-24T12:05:56;16.50;99.90
7792;DHT22;3940;49.892;10.886;2022-10-24T12:09:09;16.40;99.90
7792;DHT22;3940;49.892;10.886;2022-10-24T12:12:09;16.40;99.90
7792;DHT22;3940;49.892;10.886;2022-10-24T12:21:35;16.30;99.90
7792;DHT22;3940;49.892;10.886;2022-10-24T12:27:35;16.40;99.90
7792;DHT22;3940;49.892;10.886;2022-10-24T12:30:21;16.40;99.90
7792;DHT22;3940;49.892;10.886;2022-10-24T12:36:12;16.50;99.90
7792;DHT22;3940;49.892;10.886;2022-10-24T12:39:03;16.50;99.90
7792;DHT22;3940;49.892;10.886;2022-10-24T12:41:49;16.50;99.90
7792;DHT22;3940;49.892;10.886;2022-10-24T12:44:36;16.50;99.90
7792;DHT22;3940;49.892;10.886;2022-10-24T12:47:38;16.60;99.90
7792;DHT22;3940;49.892;10.886;2022-10-24T12:50:54;16.60;99.90
7792;DHT22;3940;49.892;10.886;2022-10-24T12:54:02;16.60;99.90
7792;DHT22;3940;49.892;10.886;2022-10-24T13:00:19;16.60;99.90
7792;DHT22;3940;49.892;10.886;2022-10-24T13:03:13;16.60;99.90
7792;DHT22;3940;49.892;10.886;2022-10-24T13:06:34;16.60;99.90
7792;DHT22;3940;49.892;10.886;2022-10-24T13:13:04;16.50;99.90
7792;DHT22;3940;49.892;10.886;2022-10-24T13:16:02;16.50;99.90
7792;DHT22;3940;49.892;10.886;2022-10-24T13:19:07;16.50;99.90
7792;DHT22;3940;49.892;10.886;2022-10-24T13:21:56;16.50;99.90
7792;DHT22;3940;49.892;10.886;2022-10-24T13:24:46;16.40;99.90
7792;DHT22;3940;49.892;10.886;2022-10-24T13:27:32;16.40;99.90
7792;DHT22;3940;49.892;10.886;2022-10-24T13:30:26;16.40;99.90
7792;DHT22;3940;49.892;10.886;2022-10-24T13:33:43;16.30;99.90
7792;DHT22;3940;49.892;10.886;2022-10-24T13:36:30;16.30;99.90
7792;DHT22;3940;49.892;10.886;2022-10-24T13:39:22;16.20;99.90
7792;DHT22;3940;49.892;10.886;2022-10-24T13:42:31;16.30;99.90
7792;DHT22;3940;49.892;10.886;2022-10-24T13:45:29;16.30;99.90
7792;DHT22;3940;49.892;10.886;2022-10-24T13:48:22;16.30;99.90
7792;DHT22;3940;49.892;10.886;2022-10-24T13:51:18;16.30;99.90
7792;DHT22;3940;49.892;10.886;2022-10-24T13:54:12;16.40;99.90
7792;DHT22;3940;49.892;10.886;2022-10-24T13:57:26;16.40;99.90
7792;DHT22;3940;49.892;10.886;2022-10-24T14:00:29;16.40;99.90
7792;DHT22;3940;49.892;10.886;2022-10-24T14:03:16;16.50;99.90
7792;DHT22;3940;49.892;10.886;2022-10-24T14:06:09;16.50;99.90
7792;DHT22;3940;49.892;10.886;2022-10-24T14:08:56;16.50;99.90
7792;DHT22;3940;49.892;10.886;2022-10-24T14:11:45;16.60;99.90
7792;DHT22;3940;49.892;10.886;2022-10-24T14:14:50;16.60;99.90
7792;DHT22;3940;49.892;10.886;2022-10-24T14:17:37;16.60;99.90
7792;DHT22;3940;49.892;10.886;2022-10-24T14:20:25;16.60;99.90
7792;DHT22;3940;49.892;10.886;2022-10-24T14:23:33;16.60;99.90
7792;DHT22;3940;49.892;10.886;2022-10-24T14:26:29;16.60;99.90
7792;DHT22;3940;49.892;10.886;2022-10-24T14:29:21;16.60;99.90
7792;DHT22;3940;49.892;10.886;2022-10-24T14:32:12;16.60;99.90
7792;DHT22;3940;49.892;10.886;2022-10-24T14:34:58;16.60;99.90
7792;DHT22;3940;49.892;10.886;2022-10-24T14:37:43;16.60;99.90
7792;DHT22;3940;49.892;10.886;2022-10-24T14:40:29;16.60;99.90
7792;DHT22;3940;49.892;10.886;2022-10-24T14:43:18;16.60;99.90
7792;DHT22;3940;49.892;10.886;2022-10-24T14:49:29;16.90;99.90
7792;DHT22;3940;49.892;10.886;2022-10-24T14:52:24;16.90;99.90
7792;DHT22;3940;49.892;10.886;2022-10-24T14:55:23;16.80;99.90
7792;DHT22;3940;49.892;10.886;2022-10-24T14:58:21;16.80;99.90
7792;DHT22;3940;49.892;10.886;2022-10-24T15:01:16;16.70;99.90
7792;DHT22;3940;49.892;10.886;2022-10-24T15:04:03;16.60;99.90
7792;DHT22;3940;49.892;10.886;2022-10-24T15:06:48;16.60;99.90
7792;DHT22;3940;49.892;10.886;2022-10-24T15:09:32;16.60;99.90
7792;DHT22;3940;49.892;10.886;2022-10-24T15:12:26;16.60;99.90
7792;DHT22;3940;49.892;10.886;2022-10-24T15:15:31;16.50;99.90
7792;DHT22;3940;49.892;10.886;2022-10-24T15:18:21;16.50;99.90
7792;DHT22;3940;49.892;10.886;2022-10-24T15:21:14;16.40;99.90
7792;DHT22;3940;49.892;10.886;2022-10-24T15:24:22;16.30;99.90
7792;DHT22;3940;49.892;10.886;2022-10-24T15:27:09;16.30;99.90
7792;DHT22;3940;49.892;10.886;2022-10-24T15:30:00;16.30;99.90
7792;DHT22;3940;49.892;10.886;2022-10-24T15:32:50;16.20;99.90
7792;DHT22;3940;49.892;10.886;2022-10-24T15:35:38;16.20;99.90
7792;DHT22;3940;49.892;10.886;2022-10-24T15:38:23;16.20;99.90
7792;DHT22;3940;49.892;10.886;2022-10-24T15:41:08;16.10;99.90
7792;DHT22;3940;49.892;10.886;2022-10-24T15:43:53;16.10;99.90
7792;DHT22;3940;49.892;10.886;2022-10-24T15:46:38;16.00;99.90
7792;DHT22;3940;49.892;10.886;2022-10-24T15:49:22;16.00;99.90
7792;DHT22;3940;49.892;10.886;2022-10-24T15:52:07;15.90;99.90
7792;DHT22;3940;49.892;10.886;2022-10-24T15:54:55;15.90;99.90
7792;DHT22;3940;49.892;10.886;2022-10-24T15:57:39;15.80;99.90
7792;DHT22;3940;49.892;10.886;2022-10-24T16:00:26;15.80;99.90
7792;DHT22;3940;49.892;10.886;2022-10-24T16:03:14;15.70;99.90
7792;DHT22;3940;49.892;10.886;2022-10-24T16:06:00;15.70;99.90
7792;DHT22;3940;49.892;10.886;2022-10-24T16:08:48;15.60;99.90
7792;DHT22;3940;49.892;10.886;2022-10-24T16:11:32;15.60;99.90
7792;DHT22;3940;49.892;10.886;2022-10-24T16:14:18;15.60;99.90
7792;DHT22;3940;49.892;10.886;2022-10-24T16:17:03;15.50;99.90
7792;DHT22;3940;49.892;10.886;2022-10-24T16:19:47;15.50;99.90
7792;DHT22;3940;49.892;10.886;2022-10-24T16:22:31;15.50;99.90
7792;DHT22;3940;49.892;10.886;2022-10-24T16:25:18;15.40;99.90
7792;DHT22;3940;49.892;10.886;2022-10-24T16:28:04;15.40;99.90
7792;DHT22;3940;49.892;10.886;2022-10-24T16:30:51;15.40;99.90
7792;DHT22;3940;49.892;10.886;2022-10-24T16:33:35;15.40;99.90
7792;DHT22;3940;49.892;10.886;2022-10-24T16:36:20;15.40;99.90
7792;DHT22;3940;49.892;10.886;2022-10-24T16:39:07;15.40;99.90
7792;DHT22;3940;49.892;10.886;2022-10-24T16:41:53;15.40;99.90
7792;DHT22;3940;49.892;10.886;2022-10-24T16:44:37;15.40;99.90
7792;DHT22;3940;49.892;10.886;2022-10-24T16:47:21;15.40;99.90
7792;DHT22;3940;49.892;10.886;2022-10-24T16:50:06;15.30;99.90
7792;DHT22;3940;49.892;10.886;2022-10-24T16:52:53;15.30;99.90
7792;DHT22;3940;49.892;10.886;2022-10-24T16:55:38;15.30;99.90
7792;DHT22;3940;49.892;10.886;2022-10-24T16:58:22;15.30;99.90
7792;DHT22;3940;49.892;10.886;2022-10-24T17:01:10;15.20;99.90
7792;DHT22;3940;49.892;10.886;2022-10-24T17:03:55;15.20;99.90
7792;DHT22;3940;49.892;10.886;2022-10-24T17:06:39;15.20;99.90
7792;DHT22;3940;49.892;10.886;2022-10-24T17:09:23;15.20;99.90
7792;DHT22;3940;49.892;10.886;2022-10-24T17:12:08;15.20;99.90
7792;DHT22;3940;49.892;10.886;2022-10-24T17:14:52;15.20;99.90
7792;DHT22;3940;49.892;10.886;2022-10-24T17:17:37;15.20;99.90
7792;DHT22;3940;49.892;10.886;2022-10-24T17:20:22;15.10;99.90
7792;DHT22;3940;49.892;10.886;2022-10-24T17:23:08;15.10;99.90
7792;DHT22;3940;49.892;10.886;2022-10-24T17:25:53;15.10;99.90
7792;DHT22;3940;49.892;10.886;2022-10-24T17:28:37;15.10;99.90
7792;DHT22;3940;49.892;10.886;2022-10-24T17:31:22;15.10;99.90
7792;DHT22;3940;49.892;10.886;2022-10-24T17:34:07;15.10;99.90
7792;DHT22;3940;49.892;10.886;2022-10-24T17:37:05;15.00;99.90
7792;DHT22;3940;49.892;10.886;2022-10-24T17:39:55;15.00;99.90
7792;DHT22;3940;49.892;10.886;2022-10-24T17:42:42;15.00;99.90
7792;DHT22;3940;49.892;10.886;2022-10-24T17:45:30;15.00;99.90
7792;DHT22;3940;49.892;10.886;2022-10-24T17:48:16;15.00;99.90
7792;DHT22;3940;49.892;10.886;2022-10-24T17:51:01;14.90;99.90
7792;DHT22;3940;49.892;10.886;2022-10-24T17:53:46;14.90;99.90
7792;DHT22;3940;49.892;10.886;2022-10-24T17:56:31;14.80;99.90
7792;DHT22;3940;49.892;10.886;2022-10-24T17:59:15;14.80;99.90
7792;DHT22;3940;49.892;10.886;2022-10-24T18:02:00;14.80;99.90
7792;DHT22;3940;49.892;10.886;2022-10-24T18:04:44;14.80;99.90
7792;DHT22;3940;49.892;10.886;2022-10-24T18:07:29;14.70;99.90
7792;DHT22;3940;49.892;10.886;2022-10-24T18:10:13;14.70;99.90
7792;DHT22;3940;49.892;10.886;2022-10-24T18:12:57;14.70;99.90
7792;DHT22;3940;49.892;10.886;2022-10-24T18:15:42;14.60;99.90
7792;DHT22;3940;49.892;10.886;2022-10-24T18:18:26;14.60;99.90
7792;DHT22;3940;49.892;10.886;2022-10-24T18:21:18;14.60;99.90
7792;DHT22;3940;49.892;10.886;2022-10-24T18:24:05;14.50;99.90
7792;DHT22;3940;49.892;10.886;2022-10-24T18:26:50;14.60;99.90
7792;DHT22;3940;49.892;10.886;2022-10-24T18:29:34;14.50;99.90
7792;DHT22;3940;49.892;10.886;2022-10-24T18:32:18;14.50;99.90
7792;DHT22;3940;49.892;10.886;2022-10-24T18:35:03;14.50;99.90
7792;DHT22;3940;49.892;10.886;2022-10-24T18:37:49;14.50;99.90
7792;DHT22;3940;49.892;10.886;2022-10-24T18:40:33;14.60;99.90
7792;DHT22;3940;49.892;10.886;2022-10-24T18:43:20;14.60;99.90
7792;DHT22;3940;49.892;10.886;2022-10-24T18:46:07;14.60;99.90
7792;DHT22;3940;49.892;10.886;2022-10-24T18:48:54;14.60;99.90
7792;DHT22;3940;49.892;10.886;2022-10-24T18:51:47;14.60;99.90
7792;DHT22;3940;49.892;10.886;2022-10-24T18:54:44;14.60;99.90
7792;DHT22;3940;49.892;10.886;2022-10-24T18:57:32;14.60;99.90